webcam facing ski center webcam facing ski center


webcam facing south webcam facing south


Thunder radar blitzortung!


Rain radar rain snow radar


Visit our other sites:

Hotel Skamnos

Arachova Weather Station

Skamnos Weather Station

Skamnos Weather2

Arachova Weather2

WU Skamnos

WU Arachova


Other Weather Sites:

Parnassos Snow Forecast

Parnassos Snow Report

Kelaria 1950m

Kelaria 2240m

Fterolaka 2080m



No particular awareness of the weather is required.    There are no Weather-warnings

Nearby METAR Reports

  
1089 - Arachova Meteo, Greece
Distance from station: S 10km
Updated: 16-08-2017 22:19
Partly Cloudy
Partly Cloudy  
 Wind from SSE
Wind: SSE 2 km/h
Temperature:  23°C
Dew Point:  10°C
Humidity:  44%
Barometer:  1012 hPa
Clouds:  Partly Cloudy
Visibility:  10 km
Cloud details:  Partly Cloudy 1494 m
2017/08/16 19:19 1089 161919Z 15701KT 9999 SCT049 23/10 Q1012
1155 - Arachova2, Greece
Distance from station: S 10km
Updated: 16-08-2017 22:19
Partly Cloudy
Partly Cloudy  
 Wind from E
Wind: E 4 km/h
Temperature:  21°C
Dew Point:  10°C
Humidity:  50%
Barometer:  1013 hPa
Clouds:  Partly Cloudy
Visibility:  10 km
Cloud details:  Partly Cloudy 1250 m
2017/08/16 19:19 1155 161919Z 09002KT 9999 SCT041 21/10 Q1013
1184 - Arachova VillaFiloxenia, Greece
Distance from station: S 10km
Updated: 09-05-2017 15:04
NOT Current
Partly Cloudy
Partly Cloudy  
 Wind from calm
Wind: Calm
Temperature:  17°C
Dew Point:  9°C
Humidity:  59%
Barometer:  1007 hPa
Clouds:  Partly Cloudy
Visibility:  10 km
Cloud details:  Partly Cloudy 1006 m
2017/05/09 12:04 1184 091204Z 00000KT 9999 SCT033 17/09 Q1007
1250 - Parnassos Kelaria 1950m, Greece
Distance from station: E 3km
Updated: 16-08-2017 22:19
Few Clouds
Few Clouds  
 Wind from S
Wind: S 15 km/h
Temperature:  14°C
Dew Point:  8°C
Humidity:  67%
Barometer:  1016 hPa
Clouds:  Few Clouds
Visibility:  9 km
Cloud details:  Few Clouds 701 m
2017/08/16 19:19 1250 161919Z 18008KT 9000 FEW023 14/08 Q1016
1126 - Parnassos Fterolaka 2080m, Greece
Distance from station: E 3km
Updated: 21-03-2015 01:04
NOT Current
Few Clouds
Few Clouds  
 Wind from calm
Wind: Calm
Temperature:  -11°C
Dew Point:  -11°C
Humidity:  100%
Barometer:  1019 hPa
Clouds:  Few Clouds
Visibility:  6 km
Cloud details:  Few Clouds 305 m
2015/03/20 23:04 1126 202304Z 00000KT 6000 FEW010 M11/M11 Q1019
1382 - Parnassos Helcules 2240m, Greece
Distance from station: E 3km
Updated: 20-04-2015 13:20
NOT Current
Fog
Fog  
 Wind from SW
Wind: SW 7 km/h
Temperature:  1°C
Wind Chill:  -2°C
Dew Point:  1°C
Humidity:  100%
Barometer:  1009 hPa
Summary:  Fog
Visibility:  5 km
2015/04/20 10:20 1382 201020Z 22504KT 5000 FG 01/01 Q1009
1219 - Anrikyra, Greece
Distance from station: S 40km
Updated: 16-08-2017 22:19
Clear
Clear  
 Wind from WNW
Wind: WNW 7 km/h
Temperature:  28°C
Heat Index:  28°C
Dew Point:  14°C
Humidity:  42%
Barometer:  1011 hPa
Clouds:  Clear
Visibility:  10 km
2017/08/16 19:19 1219 161919Z 29204KT 9999 SKC 28/14 Q1011
1015 - Galaxeidi, Greece
Distance from station: S 40km
Updated: 06-08-2017 17:48
NOT Current
Clear
Clear  
 Wind from S
Wind: S 4 km/h
Temperature:  35°C
Dew Point:  18°C
Humidity:  36%
Barometer:  1018 hPa
Clouds:  Clear
Visibility:  10 km
2017/08/06 14:48 1015 061448Z 18002KT 9999 SKC 35/18 Q1018
1088 - Amfikleia, Greece
Distance from station: N 10km
Updated: 16-08-2017 22:19
Clear
Clear  
 Wind from calm
Wind: Calm
Temperature:  23°C
Dew Point:  12°C
Humidity:  50%
Barometer:  1012 hPa
Clouds:  Clear
Visibility:  10 km
2017/08/16 19:19 1088 161919Z 00000KT 9999 SKC 23/12 Q1012
1337 - Polydroso, Greece
Distance from station: N 10km
Updated: 16-08-2017 22:19
Few Clouds
Few Clouds  
 Wind from calm
Wind: Calm
Temperature:  23°C
Dew Point:  12°C
Humidity:  50%
Barometer:  1012 hPa
Clouds:  Few Clouds
Visibility:  10 km
Cloud details:  Few Clouds 1341 m
2017/08/16 19:19 1337 161919Z 00000KT 9999 FEW044 23/12 Q1012

Script developed by  Saratoga-weather.org Adapted for the template by  Weerstation Leuven